aviador You're here:

CYMH Decoded Metar

MARY'S HARBOUR in NL, CANADA
Report Time2017-11-24 09:00:00
UTC Time2017-11-24 09:11:48
Flight Rules vfr VFR
Wind250° at 06 kt
W.Decomp.*RWY 29: 5.8 kt HW 1.7 kt LCW
W.Rank250° ranks 4
Current wind is below 250° avg. (8.7)
Visibility9999 m
Phenomena:N/A
Clouds:Overcast 065 Hf
Expected CloudBase > 400 ft AGL from Temp-Dew spread
Ceiling6,500 ft
Temp00°C (ISA -15)
Dew Point-1°C (93% RH)
AAT-4.3°C
QNH993 hPa
Density Alt-1,020 ft
Elevation36 ft
Report Wrong Elevation
Raw Report
CYMH 240900Z AUTO 25006KT 220V290 9SM OVC065 00/M01 A2933 RMK
SLP933=

Extra information for CYMH:More info

Metar Taf Metar & Taf Last 4 Metars F.Rules Stats Wind Profile Meteogram Temp Stats Airport Information Weather charts Add Link Nearby VenuesMetar ALERT Operation Metar Decoded Social comments